sensor_id;sensor_type;location;lat;lon;timestamp;temperature;humidity
7388;DHT22;3735;50.136;11.062;2023-05-29T00:01:24;10.30;99.90
7388;DHT22;3735;50.136;11.062;2023-05-29T00:03:51;10.30;99.90
7388;DHT22;3735;50.136;11.062;2023-05-29T00:06:19;10.20;99.90
7388;DHT22;3735;50.136;11.062;2023-05-29T00:08:45;10.20;99.90
7388;DHT22;3735;50.136;11.062;2023-05-29T00:11:11;10.20;99.90
7388;DHT22;3735;50.136;11.062;2023-05-29T00:13:36;10.20;99.90
7388;DHT22;3735;50.136;11.062;2023-05-29T00:16:02;10.10;99.90
7388;DHT22;3735;50.136;11.062;2023-05-29T00:18:30;10.10;99.90
7388;DHT22;3735;50.136;11.062;2023-05-29T00:20:56;10.10;99.90
7388;DHT22;3735;50.136;11.062;2023-05-29T00:23:21;10.00;99.90
7388;DHT22;3735;50.136;11.062;2023-05-29T00:25:47;9.90;99.90
7388;DHT22;3735;50.136;11.062;2023-05-29T00:28:13;9.80;99.90
7388;DHT22;3735;50.136;11.062;2023-05-29T00:30:39;9.80;99.90
7388;DHT22;3735;50.136;11.062;2023-05-29T00:33:05;9.80;99.90
7388;DHT22;3735;50.136;11.062;2023-05-29T00:35:31;9.70;99.90
7388;DHT22;3735;50.136;11.062;2023-05-29T00:37:57;9.70;99.90
7388;DHT22;3735;50.136;11.062;2023-05-29T00:40:24;9.70;99.90
7388;DHT22;3735;50.136;11.062;2023-05-29T00:42:50;9.60;99.90
7388;DHT22;3735;50.136;11.062;2023-05-29T00:45:16;9.60;99.90
7388;DHT22;3735;50.136;11.062;2023-05-29T00:47:42;9.50;99.90
7388;DHT22;3735;50.136;11.062;2023-05-29T00:50:09;9.50;99.90
7388;DHT22;3735;50.136;11.062;2023-05-29T00:52:37;9.50;99.90
7388;DHT22;3735;50.136;11.062;2023-05-29T00:55:04;9.60;99.90
7388;DHT22;3735;50.136;11.062;2023-05-29T00:57:30;9.60;99.90
7388;DHT22;3735;50.136;11.062;2023-05-29T00:59:58;9.60;99.90
7388;DHT22;3735;50.136;11.062;2023-05-29T01:02:26;9.60;99.90
7388;DHT22;3735;50.136;11.062;2023-05-29T01:04:56;9.60;99.90
7388;DHT22;3735;50.136;11.062;2023-05-29T01:07:22;9.50;99.90
7388;DHT22;3735;50.136;11.062;2023-05-29T01:09:48;9.40;99.90
7388;DHT22;3735;50.136;11.062;2023-05-29T01:12:43;9.30;99.90
7388;DHT22;3735;50.136;11.062;2023-05-29T01:27:18;8.90;99.90
7388;DHT22;3735;50.136;11.062;2023-05-29T01:29:47;8.80;99.90
7388;DHT22;3735;50.136;11.062;2023-05-29T01:32:14;8.80;99.90
7388;DHT22;3735;50.136;11.062;2023-05-29T01:34:40;8.90;99.90
7388;DHT22;3735;50.136;11.062;2023-05-29T01:37:06;8.80;99.90
7388;DHT22;3735;50.136;11.062;2023-05-29T01:39:32;8.80;99.90
7388;DHT22;3735;50.136;11.062;2023-05-29T01:42:00;8.70;99.90
7388;DHT22;3735;50.136;11.062;2023-05-29T01:44:28;8.60;99.90
7388;DHT22;3735;50.136;11.062;2023-05-29T01:46:55;8.60;99.90
7388;DHT22;3735;50.136;11.062;2023-05-29T01:49:23;8.50;99.90
7388;DHT22;3735;50.136;11.062;2023-05-29T01:51:50;8.50;99.90
7388;DHT22;3735;50.136;11.062;2023-05-29T01:54:15;8.60;99.90
7388;DHT22;3735;50.136;11.062;2023-05-29T01:56:42;8.70;99.90
7388;DHT22;3735;50.136;11.062;2023-05-29T01:59:09;8.80;99.90
7388;DHT22;3735;50.136;11.062;2023-05-29T02:01:38;8.70;99.90
7388;DHT22;3735;50.136;11.062;2023-05-29T02:04:05;8.70;99.90
7388;DHT22;3735;50.136;11.062;2023-05-29T02:06:31;8.60;99.90
7388;DHT22;3735;50.136;11.062;2023-05-29T02:08:58;8.60;99.90
7388;DHT22;3735;50.136;11.062;2023-05-29T02:11:24;8.80;99.90
7388;DHT22;3735;50.136;11.062;2023-05-29T02:13:51;8.80;99.90
7388;DHT22;3735;50.136;11.062;2023-05-29T02:16:18;8.70;99.90
7388;DHT22;3735;50.136;11.062;2023-05-29T02:18:46;8.60;99.90
7388;DHT22;3735;50.136;11.062;2023-05-29T02:21:12;8.50;99.90
7388;DHT22;3735;50.136;11.062;2023-05-29T02:23:38;8.40;99.90
7388;DHT22;3735;50.136;11.062;2023-05-29T02:26:04;8.40;99.90
7388;DHT22;3735;50.136;11.062;2023-05-29T02:28:30;8.30;99.90
7388;DHT22;3735;50.136;11.062;2023-05-29T02:30:56;8.20;99.90
7388;DHT22;3735;50.136;11.062;2023-05-29T02:33:22;8.10;99.90
7388;DHT22;3735;50.136;11.062;2023-05-29T02:35:48;8.00;99.90
7388;DHT22;3735;50.136;11.062;2023-05-29T02:38:13;7.90;99.90
7388;DHT22;3735;50.136;11.062;2023-05-29T02:40:39;7.90;99.90
7388;DHT22;3735;50.136;11.062;2023-05-29T02:43:05;7.90;99.90
7388;DHT22;3735;50.136;11.062;2023-05-29T02:45:32;7.80;99.90
7388;DHT22;3735;50.136;11.062;2023-05-29T02:47:58;7.90;99.90
7388;DHT22;3735;50.136;11.062;2023-05-29T02:50:24;7.90;99.90
7388;DHT22;3735;50.136;11.062;2023-05-29T02:52:50;7.90;99.90
7388;DHT22;3735;50.136;11.062;2023-05-29T02:55:16;8.00;99.90
7388;DHT22;3735;50.136;11.062;2023-05-29T02:57:42;7.90;99.90
7388;DHT22;3735;50.136;11.062;2023-05-29T03:00:08;7.90;99.90
7388;DHT22;3735;50.136;11.062;2023-05-29T03:02:34;7.80;99.90
7388;DHT22;3735;50.136;11.062;2023-05-29T03:05:01;7.70;99.90
7388;DHT22;3735;50.136;11.062;2023-05-29T03:07:26;7.70;99.90
7388;DHT22;3735;50.136;11.062;2023-05-29T03:09:53;7.60;99.90
7388;DHT22;3735;50.136;11.062;2023-05-29T03:12:20;7.60;99.90
7388;DHT22;3735;50.136;11.062;2023-05-29T03:14:46;7.60;99.90
7388;DHT22;3735;50.136;11.062;2023-05-29T03:17:12;7.70;99.90
7388;DHT22;3735;50.136;11.062;2023-05-29T03:19:38;7.70;99.90
7388;DHT22;3735;50.136;11.062;2023-05-29T03:22:04;7.80;99.90
7388;DHT22;3735;50.136;11.062;2023-05-29T03:24:30;7.70;99.90
7388;DHT22;3735;50.136;11.062;2023-05-29T03:26:55;7.60;99.90
7388;DHT22;3735;50.136;11.062;2023-05-29T03:29:21;7.70;99.90
7388;DHT22;3735;50.136;11.062;2023-05-29T03:31:47;7.70;99.90
7388;DHT22;3735;50.136;11.062;2023-05-29T03:34:13;7.60;99.90
7388;DHT22;3735;50.136;11.062;2023-05-29T03:36:39;7.60;99.90
7388;DHT22;3735;50.136;11.062;2023-05-29T03:39:05;7.70;99.90
7388;DHT22;3735;50.136;11.062;2023-05-29T03:41:31;7.70;99.90
7388;DHT22;3735;50.136;11.062;2023-05-29T03:43:57;7.80;99.90
7388;DHT22;3735;50.136;11.062;2023-05-29T03:46:23;7.80;99.90
7388;DHT22;3735;50.136;11.062;2023-05-29T03:48:49;7.90;99.90
7388;DHT22;3735;50.136;11.062;2023-05-29T03:51:15;7.90;99.90
7388;DHT22;3735;50.136;11.062;2023-05-29T03:53:41;7.90;99.90
7388;DHT22;3735;50.136;11.062;2023-05-29T03:56:07;8.00;99.90
7388;DHT22;3735;50.136;11.062;2023-05-29T03:58:32;8.00;99.90
7388;DHT22;3735;50.136;11.062;2023-05-29T04:00:58;8.10;99.90
7388;DHT22;3735;50.136;11.062;2023-05-29T04:03:24;8.20;99.90
7388;DHT22;3735;50.136;11.062;2023-05-29T04:05:50;8.30;99.90
7388;DHT22;3735;50.136;11.062;2023-05-29T04:08:15;8.30;99.90
7388;DHT22;3735;50.136;11.062;2023-05-29T04:10:41;8.50;99.90
7388;DHT22;3735;50.136;11.062;2023-05-29T04:13:07;8.60;99.90
7388;DHT22;3735;50.136;11.062;2023-05-29T04:15:33;8.70;99.90
7388;DHT22;3735;50.136;11.062;2023-05-29T04:17:59;8.70;99.90
7388;DHT22;3735;50.136;11.062;2023-05-29T04:20:25;8.80;99.90
7388;DHT22;3735;50.136;11.062;2023-05-29T04:22:51;8.80;99.90
7388;DHT22;3735;50.136;11.062;2023-05-29T04:25:17;9.00;99.90
7388;DHT22;3735;50.136;11.062;2023-05-29T04:27:46;9.20;99.90
7388;DHT22;3735;50.136;11.062;2023-05-29T04:30:15;9.30;99.90
7388;DHT22;3735;50.136;11.062;2023-05-29T04:32:44;9.80;99.90
7388;DHT22;3735;50.136;11.062;2023-05-29T04:35:10;10.40;99.90
7388;DHT22;3735;50.136;11.062;2023-05-29T04:37:36;10.80;99.90
7388;DHT22;3735;50.136;11.062;2023-05-29T04:40:06;11.30;99.90
7388;DHT22;3735;50.136;11.062;2023-05-29T04:42:37;11.70;99.90
7388;DHT22;3735;50.136;11.062;2023-05-29T04:45:04;12.40;99.90
7388;DHT22;3735;50.136;11.062;2023-05-29T04:47:31;13.20;99.90
7388;DHT22;3735;50.136;11.062;2023-05-29T04:50:00;14.00;99.90
7388;DHT22;3735;50.136;11.062;2023-05-29T04:52:26;14.50;99.90
7388;DHT22;3735;50.136;11.062;2023-05-29T04:54:53;15.30;99.90
7388;DHT22;3735;50.136;11.062;2023-05-29T04:57:20;15.60;99.90
7388;DHT22;3735;50.136;11.062;2023-05-29T04:59:46;15.90;99.90
7388;DHT22;3735;50.136;11.062;2023-05-29T05:02:11;16.30;99.90
7388;DHT22;3735;50.136;11.062;2023-05-29T05:04:37;16.80;99.90
7388;DHT22;3735;50.136;11.062;2023-05-29T05:07:05;17.40;99.90
7388;DHT22;3735;50.136;11.062;2023-05-29T05:09:31;17.70;99.90
7388;DHT22;3735;50.136;11.062;2023-05-29T05:11:57;18.00;99.90
7388;DHT22;3735;50.136;11.062;2023-05-29T05:14:23;18.40;99.90
7388;DHT22;3735;50.136;11.062;2023-05-29T05:16:49;18.70;99.90
7388;DHT22;3735;50.136;11.062;2023-05-29T05:19:15;19.00;99.90
7388;DHT22;3735;50.136;11.062;2023-05-29T05:21:41;19.60;99.90
7388;DHT22;3735;50.136;11.062;2023-05-29T05:24:06;20.00;99.90
7388;DHT22;3735;50.136;11.062;2023-05-29T05:26:32;20.40;99.90
7388;DHT22;3735;50.136;11.062;2023-05-29T05:28:58;20.50;99.90
7388;DHT22;3735;50.136;11.062;2023-05-29T05:31:24;20.20;99.90
7388;DHT22;3735;50.136;11.062;2023-05-29T05:33:50;19.90;99.90
7388;DHT22;3735;50.136;11.062;2023-05-29T05:36:15;19.80;99.90
7388;DHT22;3735;50.136;11.062;2023-05-29T05:38:41;20.00;99.90
7388;DHT22;3735;50.136;11.062;2023-05-29T05:41:07;20.50;99.90
7388;DHT22;3735;50.136;11.062;2023-05-29T05:43:33;20.80;99.90
7388;DHT22;3735;50.136;11.062;2023-05-29T05:45:58;21.20;99.90
7388;DHT22;3735;50.136;11.062;2023-05-29T05:48:24;21.60;99.90
7388;DHT22;3735;50.136;11.062;2023-05-29T05:50:50;22.20;99.90
7388;DHT22;3735;50.136;11.062;2023-05-29T05:53:16;22.80;99.90
7388;DHT22;3735;50.136;11.062;2023-05-29T05:55:42;23.20;99.90
7388;DHT22;3735;50.136;11.062;2023-05-29T05:58:08;23.60;99.90
7388;DHT22;3735;50.136;11.062;2023-05-29T06:00:34;24.00;99.90
7388;DHT22;3735;50.136;11.062;2023-05-29T06:03:00;24.30;99.90
7388;DHT22;3735;50.136;11.062;2023-05-29T06:05:29;24.70;99.90
7388;DHT22;3735;50.136;11.062;2023-05-29T06:07:55;24.80;99.90
7388;DHT22;3735;50.136;11.062;2023-05-29T06:10:21;25.10;99.90
7388;DHT22;3735;50.136;11.062;2023-05-29T06:12:47;25.60;99.90
7388;DHT22;3735;50.136;11.062;2023-05-29T06:15:13;26.20;99.90
7388;DHT22;3735;50.136;11.062;2023-05-29T06:17:39;26.60;99.90
7388;DHT22;3735;50.136;11.062;2023-05-29T06:20:05;26.90;99.90
7388;DHT22;3735;50.136;11.062;2023-05-29T06:22:36;27.30;99.90
7388;DHT22;3735;50.136;11.062;2023-05-29T06:25:03;27.80;99.90
7388;DHT22;3735;50.136;11.062;2023-05-29T06:27:28;28.10;99.90
7388;DHT22;3735;50.136;11.062;2023-05-29T06:29:55;28.20;99.90
7388;DHT22;3735;50.136;11.062;2023-05-29T06:32:21;28.20;99.90
7388;DHT22;3735;50.136;11.062;2023-05-29T06:34:47;28.20;99.90
7388;DHT22;3735;50.136;11.062;2023-05-29T06:37:13;28.30;99.90
7388;DHT22;3735;50.136;11.062;2023-05-29T06:39:39;28.50;99.90
7388;DHT22;3735;50.136;11.062;2023-05-29T06:42:07;28.70;99.90
7388;DHT22;3735;50.136;11.062;2023-05-29T06:44:33;28.90;99.90
7388;DHT22;3735;50.136;11.062;2023-05-29T06:46:59;28.90;99.90
7388;DHT22;3735;50.136;11.062;2023-05-29T06:49:25;28.80;99.90
7388;DHT22;3735;50.136;11.062;2023-05-29T06:51:51;29.00;99.90
7388;DHT22;3735;50.136;11.062;2023-05-29T06:54:17;29.40;99.90
7388;DHT22;3735;50.136;11.062;2023-05-29T06:56:42;29.70;99.90
7388;DHT22;3735;50.136;11.062;2023-05-29T06:59:08;29.80;99.90
7388;DHT22;3735;50.136;11.062;2023-05-29T07:01:34;29.90;99.90
7388;DHT22;3735;50.136;11.062;2023-05-29T07:04:01;30.10;99.90
7388;DHT22;3735;50.136;11.062;2023-05-29T07:06:26;30.10;99.90
7388;DHT22;3735;50.136;11.062;2023-05-29T07:08:52;30.30;99.90
7388;DHT22;3735;50.136;11.062;2023-05-29T07:11:18;30.60;99.90
7388;DHT22;3735;50.136;11.062;2023-05-29T07:13:44;30.40;99.90
7388;DHT22;3735;50.136;11.062;2023-05-29T07:16:09;30.30;99.90
7388;DHT22;3735;50.136;11.062;2023-05-29T07:18:35;30.60;99.90
7388;DHT22;3735;50.136;11.062;2023-05-29T07:21:01;30.80;99.90
7388;DHT22;3735;50.136;11.062;2023-05-29T07:23:27;30.80;99.90
7388;DHT22;3735;50.136;11.062;2023-05-29T07:25:53;31.10;99.90
7388;DHT22;3735;50.136;11.062;2023-05-29T07:28:19;30.70;99.90
7388;DHT22;3735;50.136;11.062;2023-05-29T07:30:44;30.70;99.90
7388;DHT22;3735;50.136;11.062;2023-05-29T07:33:10;30.80;99.90
7388;DHT22;3735;50.136;11.062;2023-05-29T07:35:36;31.20;99.90
7388;DHT22;3735;50.136;11.062;2023-05-29T07:38:02;31.30;99.90
7388;DHT22;3735;50.136;11.062;2023-05-29T07:40:28;31.30;99.90
7388;DHT22;3735;50.136;11.062;2023-05-29T07:42:53;31.50;99.90
7388;DHT22;3735;50.136;11.062;2023-05-29T07:45:19;31.70;99.90
7388;DHT22;3735;50.136;11.062;2023-05-29T07:47:45;31.80;99.90
7388;DHT22;3735;50.136;11.062;2023-05-29T07:50:11;31.70;99.90
7388;DHT22;3735;50.136;11.062;2023-05-29T07:52:39;32.10;99.90
7388;DHT22;3735;50.136;11.062;2023-05-29T07:55:05;32.40;99.90
7388;DHT22;3735;50.136;11.062;2023-05-29T07:57:31;32.50;99.90
7388;DHT22;3735;50.136;11.062;2023-05-29T07:59:57;32.30;99.90
7388;DHT22;3735;50.136;11.062;2023-05-29T08:02:23;32.30;99.90
7388;DHT22;3735;50.136;11.062;2023-05-29T08:04:48;32.60;99.90
7388;DHT22;3735;50.136;11.062;2023-05-29T08:07:14;33.00;99.90
7388;DHT22;3735;50.136;11.062;2023-05-29T08:09:40;33.20;99.90
7388;DHT22;3735;50.136;11.062;2023-05-29T08:12:06;33.20;99.90
7388;DHT22;3735;50.136;11.062;2023-05-29T08:14:32;33.30;99.90
7388;DHT22;3735;50.136;11.062;2023-05-29T08:16:57;33.60;99.90
7388;DHT22;3735;50.136;11.062;2023-05-29T08:19:24;33.80;99.90
7388;DHT22;3735;50.136;11.062;2023-05-29T08:21:50;33.60;99.90
7388;DHT22;3735;50.136;11.062;2023-05-29T08:24:16;33.50;99.90
7388;DHT22;3735;50.136;11.062;2023-05-29T08:26:42;33.80;99.90
7388;DHT22;3735;50.136;11.062;2023-05-29T08:29:09;34.00;99.90
7388;DHT22;3735;50.136;11.062;2023-05-29T08:31:34;34.40;99.90
7388;DHT22;3735;50.136;11.062;2023-05-29T08:34:01;34.40;99.90
7388;DHT22;3735;50.136;11.062;2023-05-29T08:36:26;34.30;99.90
7388;DHT22;3735;50.136;11.062;2023-05-29T08:38:53;34.40;99.90
7388;DHT22;3735;50.136;11.062;2023-05-29T08:41:28;34.30;99.90
7388;DHT22;3735;50.136;11.062;2023-05-29T08:44:04;34.30;99.90
7388;DHT22;3735;50.136;11.062;2023-05-29T08:46:32;34.70;99.90
7388;DHT22;3735;50.136;11.062;2023-05-29T08:49:00;35.30;99.90
7388;DHT22;3735;50.136;11.062;2023-05-29T08:51:31;35.50;99.90
7388;DHT22;3735;50.136;11.062;2023-05-29T08:53:57;35.10;99.90
7388;DHT22;3735;50.136;11.062;2023-05-29T08:56:23;35.20;99.90
7388;DHT22;3735;50.136;11.062;2023-05-29T08:58:49;35.20;99.90
7388;DHT22;3735;50.136;11.062;2023-05-29T09:01:17;35.40;99.90
7388;DHT22;3735;50.136;11.062;2023-05-29T09:03:43;35.20;99.90
7388;DHT22;3735;50.136;11.062;2023-05-29T09:06:08;35.40;99.90
7388;DHT22;3735;50.136;11.062;2023-05-29T09:08:37;35.20;99.90
7388;DHT22;3735;50.136;11.062;2023-05-29T09:11:04;35.40;99.90
7388;DHT22;3735;50.136;11.062;2023-05-29T09:13:30;35.60;99.90
7388;DHT22;3735;50.136;11.062;2023-05-29T09:16:00;35.50;99.90
7388;DHT22;3735;50.136;11.062;2023-05-29T09:18:30;34.90;99.90
7388;DHT22;3735;50.136;11.062;2023-05-29T09:20:57;35.00;99.90
7388;DHT22;3735;50.136;11.062;2023-05-29T09:23:25;34.70;99.90
7388;DHT22;3735;50.136;11.062;2023-05-29T09:25:52;34.70;99.90
7388;DHT22;3735;50.136;11.062;2023-05-29T09:28:21;34.10;99.90
7388;DHT22;3735;50.136;11.062;2023-05-29T09:30:49;34.20;99.90
7388;DHT22;3735;50.136;11.062;2023-05-29T09:33:16;34.20;99.90
7388;DHT22;3735;50.136;11.062;2023-05-29T09:35:44;34.50;99.90
7388;DHT22;3735;50.136;11.062;2023-05-29T09:38:12;34.40;99.90
7388;DHT22;3735;50.136;11.062;2023-05-29T09:40:40;34.20;99.90
7388;DHT22;3735;50.136;11.062;2023-05-29T09:43:13;34.00;99.90
7388;DHT22;3735;50.136;11.062;2023-05-29T09:45:47;33.40;99.90
7388;DHT22;3735;50.136;11.062;2023-05-29T09:48:16;33.50;99.90
7388;DHT22;3735;50.136;11.062;2023-05-29T09:50:44;33.70;99.90
7388;DHT22;3735;50.136;11.062;2023-05-29T09:53:24;33.80;99.90
7388;DHT22;3735;50.136;11.062;2023-05-29T09:55:54;34.10;99.90
7388;DHT22;3735;50.136;11.062;2023-05-29T09:58:22;34.30;99.90
7388;DHT22;3735;50.136;11.062;2023-05-29T10:00:50;34.30;99.90
7388;DHT22;3735;50.136;11.062;2023-05-29T10:03:19;34.50;99.90
7388;DHT22;3735;50.136;11.062;2023-05-29T10:05:50;34.30;99.90
7388;DHT22;3735;50.136;11.062;2023-05-29T10:08:20;34.10;99.90
7388;DHT22;3735;50.136;11.062;2023-05-29T10:10:49;34.00;99.90
7388;DHT22;3735;50.136;11.062;2023-05-29T10:13:22;33.80;99.90
7388;DHT22;3735;50.136;11.062;2023-05-29T10:15:51;34.30;99.90
7388;DHT22;3735;50.136;11.062;2023-05-29T10:18:31;34.70;99.90
7388;DHT22;3735;50.136;11.062;2023-05-29T10:21:00;35.00;99.90
7388;DHT22;3735;50.136;11.062;2023-05-29T10:23:29;35.20;99.90
7388;DHT22;3735;50.136;11.062;2023-05-29T10:26:00;34.90;99.90
7388;DHT22;3735;50.136;11.062;2023-05-29T10:28:57;35.00;99.90
7388;DHT22;3735;50.136;11.062;2023-05-29T10:37:14;34.90;99.90
7388;DHT22;3735;50.136;11.062;2023-05-29T10:39:46;34.70;99.90
7388;DHT22;3735;50.136;11.062;2023-05-29T10:45:08;34.20;99.90
7388;DHT22;3735;50.136;11.062;2023-05-29T10:47:35;33.80;99.90
7388;DHT22;3735;50.136;11.062;2023-05-29T10:50:01;34.20;99.90
7388;DHT22;3735;50.136;11.062;2023-05-29T10:52:34;34.30;99.90
7388;DHT22;3735;50.136;11.062;2023-05-29T10:55:01;34.90;99.90
7388;DHT22;3735;50.136;11.062;2023-05-29T10:57:30;34.60;99.90
7388;DHT22;3735;50.136;11.062;2023-05-29T11:00:06;34.20;99.90
7388;DHT22;3735;50.136;11.062;2023-05-29T11:02:39;34.40;99.90
7388;DHT22;3735;50.136;11.062;2023-05-29T11:05:18;34.70;99.90
7388;DHT22;3735;50.136;11.062;2023-05-29T11:07:55;34.60;99.90
7388;DHT22;3735;50.136;11.062;2023-05-29T11:13:22;35.30;99.90
7388;DHT22;3735;50.136;11.062;2023-05-29T11:18:31;35.60;99.90
7388;DHT22;3735;50.136;11.062;2023-05-29T11:21:07;35.80;99.90
7388;DHT22;3735;50.136;11.062;2023-05-29T11:23:47;36.10;99.90
7388;DHT22;3735;50.136;11.062;2023-05-29T11:26:16;36.20;99.90
7388;DHT22;3735;50.136;11.062;2023-05-29T11:28:43;36.10;99.90
7388;DHT22;3735;50.136;11.062;2023-05-29T11:31:08;35.80;99.90
7388;DHT22;3735;50.136;11.062;2023-05-29T11:33:41;35.40;99.90
7388;DHT22;3735;50.136;11.062;2023-05-29T11:36:14;35.30;99.90
7388;DHT22;3735;50.136;11.062;2023-05-29T11:38:41;35.50;99.90
7388;DHT22;3735;50.136;11.062;2023-05-29T11:41:07;35.50;99.90
7388;DHT22;3735;50.136;11.062;2023-05-29T11:43:35;35.20;99.90
7388;DHT22;3735;50.136;11.062;2023-05-29T11:46:01;35.10;99.90
7388;DHT22;3735;50.136;11.062;2023-05-29T11:48:27;35.10;99.90
7388;DHT22;3735;50.136;11.062;2023-05-29T11:50:53;35.00;99.90
7388;DHT22;3735;50.136;11.062;2023-05-29T11:53:19;35.10;99.90
7388;DHT22;3735;50.136;11.062;2023-05-29T11:55:45;34.90;99.90
7388;DHT22;3735;50.136;11.062;2023-05-29T11:58:11;34.60;99.90
7388;DHT22;3735;50.136;11.062;2023-05-29T12:00:38;34.80;99.90
7388;DHT22;3735;50.136;11.062;2023-05-29T12:03:06;35.30;99.90
7388;DHT22;3735;50.136;11.062;2023-05-29T12:05:47;35.50;99.90
7388;DHT22;3735;50.136;11.062;2023-05-29T12:08:14;35.50;99.90
7388;DHT22;3735;50.136;11.062;2023-05-29T12:10:47;35.40;99.90
7388;DHT22;3735;50.136;11.062;2023-05-29T12:13:19;35.30;99.90
7388;DHT22;3735;50.136;11.062;2023-05-29T12:15:45;34.90;99.90
7388;DHT22;3735;50.136;11.062;2023-05-29T12:18:13;34.60;99.90
7388;DHT22;3735;50.136;11.062;2023-05-29T12:20:39;34.60;99.90
7388;DHT22;3735;50.136;11.062;2023-05-29T12:23:05;34.80;99.90
7388;DHT22;3735;50.136;11.062;2023-05-29T12:25:34;34.60;99.90
7388;DHT22;3735;50.136;11.062;2023-05-29T12:28:02;34.80;99.90
7388;DHT22;3735;50.136;11.062;2023-05-29T12:30:28;34.80;99.90
7388;DHT22;3735;50.136;11.062;2023-05-29T12:32:54;35.10;99.90
7388;DHT22;3735;50.136;11.062;2023-05-29T12:35:25;35.50;99.90
7388;DHT22;3735;50.136;11.062;2023-05-29T12:40:30;35.30;99.90
7388;DHT22;3735;50.136;11.062;2023-05-29T12:43:04;34.90;99.90
7388;DHT22;3735;50.136;11.062;2023-05-29T12:45:33;35.20;99.90
7388;DHT22;3735;50.136;11.062;2023-05-29T12:48:04;34.80;99.90
7388;DHT22;3735;50.136;11.062;2023-05-29T12:53:11;34.40;99.90
7388;DHT22;3735;50.136;11.062;2023-05-29T12:55:40;34.40;99.90
7388;DHT22;3735;50.136;11.062;2023-05-29T12:58:09;34.70;99.90
7388;DHT22;3735;50.136;11.062;2023-05-29T13:00:40;35.30;99.90
7388;DHT22;3735;50.136;11.062;2023-05-29T13:03:08;35.50;99.90
7388;DHT22;3735;50.136;11.062;2023-05-29T13:05:34;35.10;99.90
7388;DHT22;3735;50.136;11.062;2023-05-29T13:08:00;34.90;99.90
7388;DHT22;3735;50.136;11.062;2023-05-29T13:10:27;34.40;99.90
7388;DHT22;3735;50.136;11.062;2023-05-29T13:12:54;34.30;99.90
7388;DHT22;3735;50.136;11.062;2023-05-29T13:15:22;34.40;99.90
7388;DHT22;3735;50.136;11.062;2023-05-29T13:17:48;34.90;99.90
7388;DHT22;3735;50.136;11.062;2023-05-29T13:20:16;35.30;99.90
7388;DHT22;3735;50.136;11.062;2023-05-29T13:22:45;35.50;99.90
7388;DHT22;3735;50.136;11.062;2023-05-29T13:25:13;35.50;99.90
7388;DHT22;3735;50.136;11.062;2023-05-29T13:27:46;35.20;99.90
7388;DHT22;3735;50.136;11.062;2023-05-29T13:30:14;35.30;99.90
7388;DHT22;3735;50.136;11.062;2023-05-29T13:32:43;35.40;99.90
7388;DHT22;3735;50.136;11.062;2023-05-29T13:35:09;35.20;99.90
7388;DHT22;3735;50.136;11.062;2023-05-29T13:37:36;35.10;99.90
7388;DHT22;3735;50.136;11.062;2023-05-29T13:40:06;35.40;99.90
7388;DHT22;3735;50.136;11.062;2023-05-29T13:42:34;35.10;99.90
7388;DHT22;3735;50.136;11.062;2023-05-29T13:45:00;34.60;99.90
7388;DHT22;3735;50.136;11.062;2023-05-29T13:47:26;34.00;99.90
7388;DHT22;3735;50.136;11.062;2023-05-29T13:49:57;34.00;99.90
7388;DHT22;3735;50.136;11.062;2023-05-29T13:52:23;34.30;99.90
7388;DHT22;3735;50.136;11.062;2023-05-29T13:54:49;34.90;99.90
7388;DHT22;3735;50.136;11.062;2023-05-29T13:57:15;35.40;99.90
7388;DHT22;3735;50.136;11.062;2023-05-29T13:59:41;35.10;99.90
7388;DHT22;3735;50.136;11.062;2023-05-29T14:02:07;34.50;99.90
7388;DHT22;3735;50.136;11.062;2023-05-29T14:04:33;34.00;99.90
7388;DHT22;3735;50.136;11.062;2023-05-29T14:06:59;33.80;99.90
7388;DHT22;3735;50.136;11.062;2023-05-29T14:09:26;33.80;99.90
7388;DHT22;3735;50.136;11.062;2023-05-29T14:11:55;33.70;99.90
7388;DHT22;3735;50.136;11.062;2023-05-29T14:14:22;33.50;99.90
7388;DHT22;3735;50.136;11.062;2023-05-29T14:16:49;33.80;99.90
7388;DHT22;3735;50.136;11.062;2023-05-29T14:19:15;33.70;99.90
7388;DHT22;3735;50.136;11.062;2023-05-29T14:21:41;33.50;99.90
7388;DHT22;3735;50.136;11.062;2023-05-29T14:24:07;33.40;99.90
7388;DHT22;3735;50.136;11.062;2023-05-29T14:26:33;33.60;99.90
7388;DHT22;3735;50.136;11.062;2023-05-29T14:28:59;33.70;99.90
7388;DHT22;3735;50.136;11.062;2023-05-29T14:31:25;33.90;99.90
7388;DHT22;3735;50.136;11.062;2023-05-29T14:33:50;33.90;99.90
7388;DHT22;3735;50.136;11.062;2023-05-29T14:36:16;33.40;99.90
7388;DHT22;3735;50.136;11.062;2023-05-29T14:38:42;32.90;99.90
7388;DHT22;3735;50.136;11.062;2023-05-29T14:41:09;32.90;99.90
7388;DHT22;3735;50.136;11.062;2023-05-29T14:43:38;32.60;99.90
7388;DHT22;3735;50.136;11.062;2023-05-29T14:46:07;32.50;99.90
7388;DHT22;3735;50.136;11.062;2023-05-29T14:48:34;32.60;99.90
7388;DHT22;3735;50.136;11.062;2023-05-29T14:51:00;32.20;99.90
7388;DHT22;3735;50.136;11.062;2023-05-29T14:53:26;31.90;99.90
7388;DHT22;3735;50.136;11.062;2023-05-29T14:55:52;31.60;99.90
7388;DHT22;3735;50.136;11.062;2023-05-29T14:58:19;31.20;99.90
7388;DHT22;3735;50.136;11.062;2023-05-29T15:00:44;31.20;99.90
7388;DHT22;3735;50.136;11.062;2023-05-29T15:03:10;31.40;99.90
7388;DHT22;3735;50.136;11.062;2023-05-29T15:05:36;31.60;99.90
7388;DHT22;3735;50.136;11.062;2023-05-29T15:08:02;32.00;99.90
7388;DHT22;3735;50.136;11.062;2023-05-29T15:10:28;32.20;99.90
7388;DHT22;3735;50.136;11.062;2023-05-29T15:12:54;32.30;99.90
7388;DHT22;3735;50.136;11.062;2023-05-29T15:15:27;32.30;99.90
7388;DHT22;3735;50.136;11.062;2023-05-29T15:17:53;32.20;99.90
7388;DHT22;3735;50.136;11.062;2023-05-29T15:20:24;32.50;99.90
7388;DHT22;3735;50.136;11.062;2023-05-29T15:22:54;32.40;99.90
7388;DHT22;3735;50.136;11.062;2023-05-29T15:25:21;32.20;99.90
7388;DHT22;3735;50.136;11.062;2023-05-29T15:27:47;31.90;99.90
7388;DHT22;3735;50.136;11.062;2023-05-29T15:30:15;31.50;99.90
7388;DHT22;3735;50.136;11.062;2023-05-29T15:32:44;31.50;99.90
7388;DHT22;3735;50.136;11.062;2023-05-29T15:35:14;31.40;99.90
7388;DHT22;3735;50.136;11.062;2023-05-29T15:37:42;31.10;99.90
7388;DHT22;3735;50.136;11.062;2023-05-29T15:40:09;30.80;99.90
7388;DHT22;3735;50.136;11.062;2023-05-29T15:42:35;30.50;99.90
7388;DHT22;3735;50.136;11.062;2023-05-29T15:45:05;30.00;99.90
7388;DHT22;3735;50.136;11.062;2023-05-29T15:47:31;29.70;99.90
7388;DHT22;3735;50.136;11.062;2023-05-29T15:49:58;29.00;99.90
7388;DHT22;3735;50.136;11.062;2023-05-29T15:52:26;28.20;99.90
7388;DHT22;3735;50.136;11.062;2023-05-29T15:54:52;27.40;99.90
7388;DHT22;3735;50.136;11.062;2023-05-29T15:57:18;27.00;99.90
7388;DHT22;3735;50.136;11.062;2023-05-29T15:59:44;26.60;99.90
7388;DHT22;3735;50.136;11.062;2023-05-29T16:02:10;26.50;99.90
7388;DHT22;3735;50.136;11.062;2023-05-29T16:04:36;26.60;99.90
7388;DHT22;3735;50.136;11.062;2023-05-29T16:07:02;26.40;99.90
7388;DHT22;3735;50.136;11.062;2023-05-29T16:09:28;26.00;99.90
7388;DHT22;3735;50.136;11.062;2023-05-29T16:11:54;25.70;99.90
7388;DHT22;3735;50.136;11.062;2023-05-29T16:14:20;25.50;99.90
7388;DHT22;3735;50.136;11.062;2023-05-29T16:16:46;25.40;99.90
7388;DHT22;3735;50.136;11.062;2023-05-29T16:19:12;25.30;99.90
7388;DHT22;3735;50.136;11.062;2023-05-29T16:21:38;25.30;99.90